sensor_id;sensor_type;location;lat;lon;timestamp;temperature;humidity
2639;DHT22;1329;51.384;7.122;2023-05-31T00:02:26;17.20;1.00
2639;DHT22;1329;51.384;7.122;2023-05-31T00:05:03;17.20;1.00
2639;DHT22;1329;51.384;7.122;2023-05-31T00:07:31;17.10;1.00
2639;DHT22;1329;51.384;7.122;2023-05-31T00:10:00;17.00;1.00
2639;DHT22;1329;51.384;7.122;2023-05-31T00:12:32;17.10;1.00
2639;DHT22;1329;51.384;7.122;2023-05-31T00:15:09;17.00;1.00
2639;DHT22;1329;51.384;7.122;2023-05-31T00:17:45;17.00;1.00
2639;DHT22;1329;51.384;7.122;2023-05-31T00:20:17;17.00;1.00
2639;DHT22;1329;51.384;7.122;2023-05-31T00:22:49;17.00;1.00
2639;DHT22;1329;51.384;7.122;2023-05-31T00:25:16;17.00;1.00
2639;DHT22;1329;51.384;7.122;2023-05-31T00:27:47;16.90;1.00
2639;DHT22;1329;51.384;7.122;2023-05-31T00:30:18;16.90;1.00
2639;DHT22;1329;51.384;7.122;2023-05-31T00:32:49;16.90;1.00
2639;DHT22;1329;51.384;7.122;2023-05-31T00:35:23;16.90;1.00
2639;DHT22;1329;51.384;7.122;2023-05-31T00:37:55;16.90;1.00
2639;DHT22;1329;51.384;7.122;2023-05-31T00:40:28;16.80;1.00
2639;DHT22;1329;51.384;7.122;2023-05-31T00:43:12;16.80;1.00
2639;DHT22;1329;51.384;7.122;2023-05-31T00:45:42;16.80;1.00
2639;DHT22;1329;51.384;7.122;2023-05-31T00:48:13;16.70;1.00
2639;DHT22;1329;51.384;7.122;2023-05-31T00:50:42;16.70;1.00
2639;DHT22;1329;51.384;7.122;2023-05-31T00:53:11;16.70;1.00
2639;DHT22;1329;51.384;7.122;2023-05-31T00:55:38;16.70;1.00
2639;DHT22;1329;51.384;7.122;2023-05-31T00:58:06;16.70;1.00
2639;DHT22;1329;51.384;7.122;2023-05-31T01:00:33;16.60;1.00
2639;DHT22;1329;51.384;7.122;2023-05-31T01:03:02;16.60;1.00
2639;DHT22;1329;51.384;7.122;2023-05-31T01:05:30;16.60;1.00
2639;DHT22;1329;51.384;7.122;2023-05-31T01:07:59;16.60;1.00
2639;DHT22;1329;51.384;7.122;2023-05-31T01:10:26;16.50;1.00
2639;DHT22;1329;51.384;7.122;2023-05-31T01:13:03;16.50;1.00
2639;DHT22;1329;51.384;7.122;2023-05-31T01:15:38;16.50;1.00
2639;DHT22;1329;51.384;7.122;2023-05-31T01:18:14;16.40;1.00
2639;DHT22;1329;51.384;7.122;2023-05-31T01:20:48;16.40;1.00
2639;DHT22;1329;51.384;7.122;2023-05-31T01:23:34;16.40;1.00
2639;DHT22;1329;51.384;7.122;2023-05-31T01:26:42;16.30;1.00
2639;DHT22;1329;51.384;7.122;2023-05-31T01:29:14;16.30;1.00
2639;DHT22;1329;51.384;7.122;2023-05-31T01:31:45;16.20;1.00
2639;DHT22;1329;51.384;7.122;2023-05-31T01:34:17;16.20;1.00
2639;DHT22;1329;51.384;7.122;2023-05-31T01:36:44;16.10;1.00
2639;DHT22;1329;51.384;7.122;2023-05-31T01:39:11;16.10;1.00
2639;DHT22;1329;51.384;7.122;2023-05-31T01:41:41;16.00;1.00
2639;DHT22;1329;51.384;7.122;2023-05-31T01:44:13;16.00;1.00
2639;DHT22;1329;51.384;7.122;2023-05-31T01:46:44;16.00;1.00
2639;DHT22;1329;51.384;7.122;2023-05-31T01:49:13;16.00;1.00
2639;DHT22;1329;51.384;7.122;2023-05-31T01:51:41;15.90;1.00
2639;DHT22;1329;51.384;7.122;2023-05-31T01:54:09;15.90;1.00
2639;DHT22;1329;51.384;7.122;2023-05-31T01:56:37;15.90;1.00
2639;DHT22;1329;51.384;7.122;2023-05-31T01:59:11;15.80;1.00
2639;DHT22;1329;51.384;7.122;2023-05-31T02:01:40;15.80;1.00
2639;DHT22;1329;51.384;7.122;2023-05-31T02:04:08;15.80;1.00
2639;DHT22;1329;51.384;7.122;2023-05-31T02:06:35;15.70;1.00
2639;DHT22;1329;51.384;7.122;2023-05-31T02:09:06;15.70;1.00
2639;DHT22;1329;51.384;7.122;2023-05-31T02:14:12;15.60;1.00
2639;DHT22;1329;51.384;7.122;2023-05-31T02:16:39;15.60;1.00
2639;DHT22;1329;51.384;7.122;2023-05-31T02:19:07;15.50;1.00
2639;DHT22;1329;51.384;7.122;2023-05-31T02:21:39;15.50;1.00
2639;DHT22;1329;51.384;7.122;2023-05-31T02:24:06;15.50;1.00
2639;DHT22;1329;51.384;7.122;2023-05-31T02:26:33;15.40;1.00
2639;DHT22;1329;51.384;7.122;2023-05-31T02:29:01;15.40;1.00
2639;DHT22;1329;51.384;7.122;2023-05-31T02:31:30;15.40;1.00
2639;DHT22;1329;51.384;7.122;2023-05-31T02:33:57;15.30;1.00
2639;DHT22;1329;51.384;7.122;2023-05-31T02:36:23;15.30;1.00
2639;DHT22;1329;51.384;7.122;2023-05-31T02:38:54;15.30;1.00
2639;DHT22;1329;51.384;7.122;2023-05-31T02:41:20;15.20;1.00
2639;DHT22;1329;51.384;7.122;2023-05-31T02:43:47;15.10;1.00
2639;DHT22;1329;51.384;7.122;2023-05-31T02:46:14;15.10;1.00
2639;DHT22;1329;51.384;7.122;2023-05-31T02:48:43;15.00;1.00
2639;DHT22;1329;51.384;7.122;2023-05-31T02:51:10;15.00;1.00
2639;DHT22;1329;51.384;7.122;2023-05-31T02:53:37;15.00;1.00
2639;DHT22;1329;51.384;7.122;2023-05-31T02:56:04;15.00;1.00
2639;DHT22;1329;51.384;7.122;2023-05-31T02:58:31;14.90;1.00
2639;DHT22;1329;51.384;7.122;2023-05-31T03:00:58;14.90;1.00
2639;DHT22;1329;51.384;7.122;2023-05-31T03:03:25;14.90;1.00
2639;DHT22;1329;51.384;7.122;2023-05-31T03:05:53;14.80;1.00
2639;DHT22;1329;51.384;7.122;2023-05-31T03:08:20;14.80;1.00
2639;DHT22;1329;51.384;7.122;2023-05-31T03:10:47;14.80;1.00
2639;DHT22;1329;51.384;7.122;2023-05-31T03:13:14;14.80;1.00
2639;DHT22;1329;51.384;7.122;2023-05-31T03:15:42;14.70;1.00
2639;DHT22;1329;51.384;7.122;2023-05-31T03:18:16;14.70;1.00
2639;DHT22;1329;51.384;7.122;2023-05-31T03:20:43;14.70;1.00
2639;DHT22;1329;51.384;7.122;2023-05-31T03:23:12;14.70;1.00
2639;DHT22;1329;51.384;7.122;2023-05-31T03:25:40;14.70;1.00
2639;DHT22;1329;51.384;7.122;2023-05-31T03:28:08;14.60;1.00
2639;DHT22;1329;51.384;7.122;2023-05-31T03:30:36;14.60;1.00
2639;DHT22;1329;51.384;7.122;2023-05-31T03:33:03;14.60;1.00
2639;DHT22;1329;51.384;7.122;2023-05-31T03:35:31;14.50;1.00
2639;DHT22;1329;51.384;7.122;2023-05-31T03:37:58;14.50;1.00
2639;DHT22;1329;51.384;7.122;2023-05-31T03:40:29;14.50;1.00
2639;DHT22;1329;51.384;7.122;2023-05-31T03:42:56;14.40;1.00
2639;DHT22;1329;51.384;7.122;2023-05-31T03:45:23;14.40;1.00
2639;DHT22;1329;51.384;7.122;2023-05-31T03:47:51;14.40;1.00
2639;DHT22;1329;51.384;7.122;2023-05-31T03:50:18;14.40;1.00
2639;DHT22;1329;51.384;7.122;2023-05-31T03:52:46;14.40;1.00
2639;DHT22;1329;51.384;7.122;2023-05-31T03:55:13;14.40;1.00
2639;DHT22;1329;51.384;7.122;2023-05-31T03:57:42;14.40;1.00
2639;DHT22;1329;51.384;7.122;2023-05-31T04:00:14;14.40;1.00
2639;DHT22;1329;51.384;7.122;2023-05-31T04:02:45;14.40;1.00
2639;DHT22;1329;51.384;7.122;2023-05-31T04:05:13;14.40;1.00
2639;DHT22;1329;51.384;7.122;2023-05-31T04:07:41;14.40;1.00
2639;DHT22;1329;51.384;7.122;2023-05-31T04:10:09;14.40;1.00
2639;DHT22;1329;51.384;7.122;2023-05-31T04:12:36;14.50;1.00
2639;DHT22;1329;51.384;7.122;2023-05-31T04:15:06;14.40;1.00
2639;DHT22;1329;51.384;7.122;2023-05-31T04:17:33;14.40;1.00
2639;DHT22;1329;51.384;7.122;2023-05-31T04:20:00;14.40;1.00
2639;DHT22;1329;51.384;7.122;2023-05-31T04:22:29;14.40;1.00
2639;DHT22;1329;51.384;7.122;2023-05-31T04:24:56;14.40;1.00
2639;DHT22;1329;51.384;7.122;2023-05-31T04:27:23;14.40;1.00
2639;DHT22;1329;51.384;7.122;2023-05-31T04:29:51;14.40;1.00
2639;DHT22;1329;51.384;7.122;2023-05-31T04:32:21;14.40;1.00
2639;DHT22;1329;51.384;7.122;2023-05-31T04:34:49;14.40;1.00
2639;DHT22;1329;51.384;7.122;2023-05-31T04:37:17;14.40;1.00
2639;DHT22;1329;51.384;7.122;2023-05-31T04:39:44;14.40;1.00
2639;DHT22;1329;51.384;7.122;2023-05-31T04:42:12;14.40;1.00
2639;DHT22;1329;51.384;7.122;2023-05-31T04:44:39;14.40;1.00
2639;DHT22;1329;51.384;7.122;2023-05-31T04:47:07;14.50;1.00
2639;DHT22;1329;51.384;7.122;2023-05-31T04:49:36;14.50;1.00
2639;DHT22;1329;51.384;7.122;2023-05-31T04:52:03;14.50;1.00
2639;DHT22;1329;51.384;7.122;2023-05-31T04:54:32;14.50;1.00
2639;DHT22;1329;51.384;7.122;2023-05-31T04:57:01;14.50;1.00
2639;DHT22;1329;51.384;7.122;2023-05-31T04:59:31;14.60;1.00
2639;DHT22;1329;51.384;7.122;2023-05-31T05:01:59;14.60;1.00
2639;DHT22;1329;51.384;7.122;2023-05-31T05:04:26;14.60;1.00
2639;DHT22;1329;51.384;7.122;2023-05-31T05:06:56;14.60;1.00
2639;DHT22;1329;51.384;7.122;2023-05-31T05:09:26;14.70;1.00
2639;DHT22;1329;51.384;7.122;2023-05-31T05:11:56;14.70;1.00
2639;DHT22;1329;51.384;7.122;2023-05-31T05:14:26;14.80;1.00
2639;DHT22;1329;51.384;7.122;2023-05-31T05:16:53;14.80;1.00
2639;DHT22;1329;51.384;7.122;2023-05-31T05:19:20;14.90;1.00
2639;DHT22;1329;51.384;7.122;2023-05-31T05:21:47;14.90;1.00
2639;DHT22;1329;51.384;7.122;2023-05-31T05:24:15;14.90;1.00
2639;DHT22;1329;51.384;7.122;2023-05-31T05:26:46;15.00;1.00
2639;DHT22;1329;51.384;7.122;2023-05-31T05:29:13;15.00;1.00
2639;DHT22;1329;51.384;7.122;2023-05-31T05:31:40;15.10;1.00
2639;DHT22;1329;51.384;7.122;2023-05-31T05:34:07;15.10;1.00
2639;DHT22;1329;51.384;7.122;2023-05-31T05:36:35;15.20;1.00
2639;DHT22;1329;51.384;7.122;2023-05-31T05:39:03;15.20;1.00
2639;DHT22;1329;51.384;7.122;2023-05-31T05:41:33;15.30;1.00
2639;DHT22;1329;51.384;7.122;2023-05-31T05:44:00;15.30;1.00
2639;DHT22;1329;51.384;7.122;2023-05-31T05:46:28;15.40;1.00
2639;DHT22;1329;51.384;7.122;2023-05-31T05:48:54;15.40;1.00
2639;DHT22;1329;51.384;7.122;2023-05-31T05:51:22;15.50;1.00
2639;DHT22;1329;51.384;7.122;2023-05-31T05:53:49;15.50;1.00
2639;DHT22;1329;51.384;7.122;2023-05-31T05:56:20;15.60;1.00
2639;DHT22;1329;51.384;7.122;2023-05-31T05:58:48;15.70;1.00
2639;DHT22;1329;51.384;7.122;2023-05-31T06:01:15;15.70;1.00
2639;DHT22;1329;51.384;7.122;2023-05-31T06:03:45;15.80;1.00
2639;DHT22;1329;51.384;7.122;2023-05-31T06:06:13;15.80;1.00
2639;DHT22;1329;51.384;7.122;2023-05-31T06:08:40;15.90;1.00
2639;DHT22;1329;51.384;7.122;2023-05-31T06:11:07;16.00;1.00
2639;DHT22;1329;51.384;7.122;2023-05-31T06:13:34;16.00;1.00
2639;DHT22;1329;51.384;7.122;2023-05-31T06:16:04;16.10;1.00
2639;DHT22;1329;51.384;7.122;2023-05-31T06:18:32;16.10;1.00
2639;DHT22;1329;51.384;7.122;2023-05-31T06:20:59;16.20;1.00
2639;DHT22;1329;51.384;7.122;2023-05-31T06:23:26;16.20;1.00
2639;DHT22;1329;51.384;7.122;2023-05-31T06:25:52;16.30;1.00
2639;DHT22;1329;51.384;7.122;2023-05-31T06:28:20;16.30;1.00
2639;DHT22;1329;51.384;7.122;2023-05-31T06:30:47;16.30;1.00
2639;DHT22;1329;51.384;7.122;2023-05-31T06:33:15;16.40;1.00
2639;DHT22;1329;51.384;7.122;2023-05-31T06:35:42;16.40;1.00
2639;DHT22;1329;51.384;7.122;2023-05-31T06:38:10;16.50;1.00
2639;DHT22;1329;51.384;7.122;2023-05-31T06:40:41;16.50;1.00
2639;DHT22;1329;51.384;7.122;2023-05-31T06:43:08;16.60;1.00
2639;DHT22;1329;51.384;7.122;2023-05-31T06:45:35;16.70;1.00
2639;DHT22;1329;51.384;7.122;2023-05-31T06:48:06;16.60;1.00
2639;DHT22;1329;51.384;7.122;2023-05-31T06:50:35;16.70;1.00
2639;DHT22;1329;51.384;7.122;2023-05-31T06:53:02;16.80;1.00
2639;DHT22;1329;51.384;7.122;2023-05-31T06:55:29;16.80;1.00
2639;DHT22;1329;51.384;7.122;2023-05-31T06:57:56;16.80;1.00
2639;DHT22;1329;51.384;7.122;2023-05-31T07:00:23;16.90;1.00
2639;DHT22;1329;51.384;7.122;2023-05-31T07:02:50;17.00;1.00
2639;DHT22;1329;51.384;7.122;2023-05-31T07:05:21;17.00;1.00
2639;DHT22;1329;51.384;7.122;2023-05-31T07:07:49;17.10;1.00
2639;DHT22;1329;51.384;7.122;2023-05-31T07:10:19;17.10;1.00
2639;DHT22;1329;51.384;7.122;2023-05-31T07:12:53;17.20;1.00
2639;DHT22;1329;51.384;7.122;2023-05-31T07:15:21;17.20;1.00
2639;DHT22;1329;51.384;7.122;2023-05-31T07:17:48;17.30;1.00
2639;DHT22;1329;51.384;7.122;2023-05-31T07:20:22;17.30;1.00
2639;DHT22;1329;51.384;7.122;2023-05-31T07:22:52;17.40;1.00
2639;DHT22;1329;51.384;7.122;2023-05-31T07:25:20;17.50;1.00
2639;DHT22;1329;51.384;7.122;2023-05-31T07:27:47;17.60;1.00
2639;DHT22;1329;51.384;7.122;2023-05-31T07:30:23;17.60;1.00
2639;DHT22;1329;51.384;7.122;2023-05-31T07:32:51;17.60;1.00
2639;DHT22;1329;51.384;7.122;2023-05-31T07:35:18;17.70;1.00
2639;DHT22;1329;51.384;7.122;2023-05-31T07:37:48;17.80;1.00
2639;DHT22;1329;51.384;7.122;2023-05-31T07:40:17;17.80;1.00
2639;DHT22;1329;51.384;7.122;2023-05-31T07:42:50;17.90;1.00
2639;DHT22;1329;51.384;7.122;2023-05-31T07:45:20;17.90;1.00
2639;DHT22;1329;51.384;7.122;2023-05-31T07:47:49;18.00;1.00
2639;DHT22;1329;51.384;7.122;2023-05-31T07:50:18;18.10;1.00
2639;DHT22;1329;51.384;7.122;2023-05-31T07:52:46;18.20;1.00
2639;DHT22;1329;51.384;7.122;2023-05-31T07:55:16;18.20;1.00
2639;DHT22;1329;51.384;7.122;2023-05-31T07:57:48;18.30;1.00
2639;DHT22;1329;51.384;7.122;2023-05-31T08:00:19;18.50;1.00
2639;DHT22;1329;51.384;7.122;2023-05-31T08:02:46;18.60;1.00
2639;DHT22;1329;51.384;7.122;2023-05-31T08:05:17;18.70;1.00
2639;DHT22;1329;51.384;7.122;2023-05-31T08:07:44;18.70;1.00
2639;DHT22;1329;51.384;7.122;2023-05-31T08:10:14;18.80;1.00
2639;DHT22;1329;51.384;7.122;2023-05-31T08:12:46;18.80;1.00
2639;DHT22;1329;51.384;7.122;2023-05-31T08:15:22;18.90;1.00
2639;DHT22;1329;51.384;7.122;2023-05-31T08:17:50;19.00;1.00
2639;DHT22;1329;51.384;7.122;2023-05-31T08:20:18;19.00;1.00
2639;DHT22;1329;51.384;7.122;2023-05-31T08:22:45;19.00;1.00
2639;DHT22;1329;51.384;7.122;2023-05-31T08:25:16;19.10;1.00
2639;DHT22;1329;51.384;7.122;2023-05-31T08:27:46;19.10;1.00
2639;DHT22;1329;51.384;7.122;2023-05-31T08:30:13;19.10;1.00
2639;DHT22;1329;51.384;7.122;2023-05-31T08:32:43;19.10;1.00
2639;DHT22;1329;51.384;7.122;2023-05-31T08:35:10;19.20;1.00
2639;DHT22;1329;51.384;7.122;2023-05-31T08:37:38;19.20;1.00
2639;DHT22;1329;51.384;7.122;2023-05-31T08:40:06;19.20;1.00
2639;DHT22;1329;51.384;7.122;2023-05-31T08:42:39;19.30;1.00
2639;DHT22;1329;51.384;7.122;2023-05-31T08:45:09;19.30;1.00
2639;DHT22;1329;51.384;7.122;2023-05-31T08:47:39;19.40;1.00
2639;DHT22;1329;51.384;7.122;2023-05-31T08:50:08;19.50;1.00
2639;DHT22;1329;51.384;7.122;2023-05-31T08:52:36;19.50;1.00
2639;DHT22;1329;51.384;7.122;2023-05-31T08:55:05;19.60;1.00
2639;DHT22;1329;51.384;7.122;2023-05-31T08:57:35;19.60;1.00
2639;DHT22;1329;51.384;7.122;2023-05-31T09:00:04;19.80;1.00
2639;DHT22;1329;51.384;7.122;2023-05-31T09:02:36;20.00;1.00
2639;DHT22;1329;51.384;7.122;2023-05-31T09:05:04;20.30;1.00
2639;DHT22;1329;51.384;7.122;2023-05-31T09:07:36;20.60;1.00
2639;DHT22;1329;51.384;7.122;2023-05-31T09:10:03;21.00;1.00
2639;DHT22;1329;51.384;7.122;2023-05-31T09:12:33;21.20;1.00
2639;DHT22;1329;51.384;7.122;2023-05-31T09:15:01;21.60;1.00
2639;DHT22;1329;51.384;7.122;2023-05-31T09:17:29;22.00;1.00
2639;DHT22;1329;51.384;7.122;2023-05-31T09:19:59;22.50;1.00
2639;DHT22;1329;51.384;7.122;2023-05-31T09:22:26;22.90;1.00
2639;DHT22;1329;51.384;7.122;2023-05-31T09:24:58;23.30;1.00
2639;DHT22;1329;51.384;7.122;2023-05-31T09:27:34;23.80;1.00
2639;DHT22;1329;51.384;7.122;2023-05-31T09:30:07;24.20;1.00
2639;DHT22;1329;51.384;7.122;2023-05-31T09:32:35;24.60;1.00
2639;DHT22;1329;51.384;7.122;2023-05-31T09:35:12;24.90;1.00
2639;DHT22;1329;51.384;7.122;2023-05-31T09:37:45;25.30;1.00
2639;DHT22;1329;51.384;7.122;2023-05-31T09:40:14;25.50;1.00
2639;DHT22;1329;51.384;7.122;2023-05-31T09:42:48;25.60;1.00
2639;DHT22;1329;51.384;7.122;2023-05-31T09:45:17;25.60;1.00
2639;DHT22;1329;51.384;7.122;2023-05-31T09:47:46;25.50;1.00
2639;DHT22;1329;51.384;7.122;2023-05-31T09:50:15;25.40;1.00
2639;DHT22;1329;51.384;7.122;2023-05-31T09:52:43;25.20;1.00
2639;DHT22;1329;51.384;7.122;2023-05-31T09:55:12;25.00;1.00
2639;DHT22;1329;51.384;7.122;2023-05-31T09:57:42;24.80;1.00
2639;DHT22;1329;51.384;7.122;2023-05-31T10:00:12;24.60;1.00
2639;DHT22;1329;51.384;7.122;2023-05-31T10:02:43;24.40;1.00
2639;DHT22;1329;51.384;7.122;2023-05-31T10:05:11;24.20;1.00
2639;DHT22;1329;51.384;7.122;2023-05-31T10:07:39;24.00;1.00
2639;DHT22;1329;51.384;7.122;2023-05-31T10:10:08;23.80;1.00
2639;DHT22;1329;51.384;7.122;2023-05-31T10:12:42;23.70;1.00
2639;DHT22;1329;51.384;7.122;2023-05-31T10:15:16;23.50;1.00
2639;DHT22;1329;51.384;7.122;2023-05-31T10:17:50;23.50;1.00
2639;DHT22;1329;51.384;7.122;2023-05-31T10:20:24;23.40;1.00
2639;DHT22;1329;51.384;7.122;2023-05-31T10:22:54;23.40;1.00
2639;DHT22;1329;51.384;7.122;2023-05-31T10:25:28;23.30;1.00
2639;DHT22;1329;51.384;7.122;2023-05-31T10:28:01;23.30;1.00
2639;DHT22;1329;51.384;7.122;2023-05-31T10:30:34;23.30;1.00
2639;DHT22;1329;51.384;7.122;2023-05-31T10:33:06;23.30;1.00
2639;DHT22;1329;51.384;7.122;2023-05-31T10:35:34;23.40;1.00
2639;DHT22;1329;51.384;7.122;2023-05-31T10:38:01;23.40;1.00
2639;DHT22;1329;51.384;7.122;2023-05-31T10:40:33;23.40;1.00
2639;DHT22;1329;51.384;7.122;2023-05-31T10:43:08;23.40;1.00
2639;DHT22;1329;51.384;7.122;2023-05-31T10:45:43;23.40;1.00
2639;DHT22;1329;51.384;7.122;2023-05-31T10:48:20;23.50;1.00
2639;DHT22;1329;51.384;7.122;2023-05-31T10:50:54;23.50;1.00
2639;DHT22;1329;51.384;7.122;2023-05-31T10:53:23;23.50;1.00
2639;DHT22;1329;51.384;7.122;2023-05-31T10:56:01;23.60;1.00
2639;DHT22;1329;51.384;7.122;2023-05-31T10:58:31;23.70;1.00
2639;DHT22;1329;51.384;7.122;2023-05-31T11:01:04;23.70;1.00
2639;DHT22;1329;51.384;7.122;2023-05-31T11:03:35;23.70;1.00
2639;DHT22;1329;51.384;7.122;2023-05-31T11:06:06;23.80;1.00
2639;DHT22;1329;51.384;7.122;2023-05-31T11:08:37;23.90;1.00
2639;DHT22;1329;51.384;7.122;2023-05-31T11:11:26;24.00;1.00
2639;DHT22;1329;51.384;7.122;2023-05-31T11:13:58;24.00;1.00
2639;DHT22;1329;51.384;7.122;2023-05-31T11:16:26;24.00;1.00
2639;DHT22;1329;51.384;7.122;2023-05-31T11:19:06;24.10;1.00
2639;DHT22;1329;51.384;7.122;2023-05-31T11:21:49;24.10;1.00
2639;DHT22;1329;51.384;7.122;2023-05-31T11:24:27;24.20;1.00
2639;DHT22;1329;51.384;7.122;2023-05-31T11:26:56;24.20;1.00
2639;DHT22;1329;51.384;7.122;2023-05-31T11:29:24;24.30;1.00
2639;DHT22;1329;51.384;7.122;2023-05-31T11:32:00;24.30;1.00
2639;DHT22;1329;51.384;7.122;2023-05-31T11:34:31;24.40;1.00
2639;DHT22;1329;51.384;7.122;2023-05-31T11:37:01;24.40;1.00
2639;DHT22;1329;51.384;7.122;2023-05-31T11:39:29;24.50;1.00
2639;DHT22;1329;51.384;7.122;2023-05-31T11:41:57;24.50;1.00
2639;DHT22;1329;51.384;7.122;2023-05-31T11:44:27;24.60;1.00
2639;DHT22;1329;51.384;7.122;2023-05-31T11:46:59;24.70;1.00
2639;DHT22;1329;51.384;7.122;2023-05-31T11:49:29;24.80;1.00
2639;DHT22;1329;51.384;7.122;2023-05-31T11:51:57;24.90;1.00
2639;DHT22;1329;51.384;7.122;2023-05-31T11:54:26;24.90;1.00
2639;DHT22;1329;51.384;7.122;2023-05-31T11:57:00;25.00;1.00
2639;DHT22;1329;51.384;7.122;2023-05-31T11:59:28;25.10;1.00
2639;DHT22;1329;51.384;7.122;2023-05-31T12:01:58;25.10;1.00
2639;DHT22;1329;51.384;7.122;2023-05-31T12:04:30;25.20;1.00
2639;DHT22;1329;51.384;7.122;2023-05-31T12:06:57;25.20;1.00
2639;DHT22;1329;51.384;7.122;2023-05-31T12:09:25;25.30;1.00
2639;DHT22;1329;51.384;7.122;2023-05-31T12:11:54;25.40;1.00
2639;DHT22;1329;51.384;7.122;2023-05-31T12:14:22;25.50;1.00
2639;DHT22;1329;51.384;7.122;2023-05-31T12:16:50;25.50;1.00
2639;DHT22;1329;51.384;7.122;2023-05-31T12:19:18;25.60;1.00
2639;DHT22;1329;51.384;7.122;2023-05-31T12:21:46;25.60;1.00
2639;DHT22;1329;51.384;7.122;2023-05-31T12:24:14;25.70;1.00
2639;DHT22;1329;51.384;7.122;2023-05-31T12:26:43;25.70;1.00
2639;DHT22;1329;51.384;7.122;2023-05-31T12:29:11;25.80;1.00
2639;DHT22;1329;51.384;7.122;2023-05-31T12:31:39;25.90;1.00
2639;DHT22;1329;51.384;7.122;2023-05-31T12:34:08;26.00;1.00
2639;DHT22;1329;51.384;7.122;2023-05-31T12:36:37;26.00;1.00
2639;DHT22;1329;51.384;7.122;2023-05-31T12:39:09;26.10;1.00
2639;DHT22;1329;51.384;7.122;2023-05-31T12:41:38;26.20;1.00
2639;DHT22;1329;51.384;7.122;2023-05-31T12:44:08;26.20;1.00
2639;DHT22;1329;51.384;7.122;2023-05-31T12:46:39;26.30;1.00
2639;DHT22;1329;51.384;7.122;2023-05-31T12:49:20;26.30;1.00
2639;DHT22;1329;51.384;7.122;2023-05-31T12:51:48;26.40;1.00
2639;DHT22;1329;51.384;7.122;2023-05-31T12:54:20;26.50;1.00
2639;DHT22;1329;51.384;7.122;2023-05-31T12:56:47;26.50;1.00
2639;DHT22;1329;51.384;7.122;2023-05-31T12:59:14;26.60;1.00
2639;DHT22;1329;51.384;7.122;2023-05-31T13:01:41;26.60;1.00
2639;DHT22;1329;51.384;7.122;2023-05-31T13:04:09;26.70;1.00
2639;DHT22;1329;51.384;7.122;2023-05-31T13:06:38;26.70;1.00
2639;DHT22;1329;51.384;7.122;2023-05-31T13:09:05;26.80;1.00
2639;DHT22;1329;51.384;7.122;2023-05-31T13:11:35;26.80;1.00
2639;DHT22;1329;51.384;7.122;2023-05-31T13:14:03;26.80;1.00
2639;DHT22;1329;51.384;7.122;2023-05-31T13:16:31;26.90;1.00
2639;DHT22;1329;51.384;7.122;2023-05-31T13:18:59;26.90;1.00
2639;DHT22;1329;51.384;7.122;2023-05-31T13:21:27;27.00;1.00
2639;DHT22;1329;51.384;7.122;2023-05-31T13:23:55;27.00;1.00
2639;DHT22;1329;51.384;7.122;2023-05-31T13:26:24;27.10;1.00
2639;DHT22;1329;51.384;7.122;2023-05-31T13:28:54;27.10;1.00
2639;DHT22;1329;51.384;7.122;2023-05-31T13:31:22;27.20;1.00
2639;DHT22;1329;51.384;7.122;2023-05-31T13:33:49;27.20;1.00
2639;DHT22;1329;51.384;7.122;2023-05-31T13:36:17;27.30;1.00
2639;DHT22;1329;51.384;7.122;2023-05-31T13:38:45;27.40;1.00
2639;DHT22;1329;51.384;7.122;2023-05-31T13:41:12;27.50;1.00
2639;DHT22;1329;51.384;7.122;2023-05-31T13:43:39;27.50;1.00
2639;DHT22;1329;51.384;7.122;2023-05-31T13:46:08;27.60;1.00
2639;DHT22;1329;51.384;7.122;2023-05-31T13:48:36;27.60;1.00
2639;DHT22;1329;51.384;7.122;2023-05-31T13:51:03;27.70;1.00
2639;DHT22;1329;51.384;7.122;2023-05-31T13:53:31;27.70;1.00
2639;DHT22;1329;51.384;7.122;2023-05-31T13:55:58;27.80;1.00
2639;DHT22;1329;51.384;7.122;2023-05-31T13:58:26;27.80;1.00
2639;DHT22;1329;51.384;7.122;2023-05-31T14:00:53;27.90;1.00
2639;DHT22;1329;51.384;7.122;2023-05-31T14:03:21;27.90;1.00
2639;DHT22;1329;51.384;7.122;2023-05-31T14:05:48;27.90;1.00
2639;DHT22;1329;51.384;7.122;2023-05-31T14:08:16;28.00;1.00
2639;DHT22;1329;51.384;7.122;2023-05-31T14:10:43;28.00;1.00
2639;DHT22;1329;51.384;7.122;2023-05-31T14:13:10;28.10;1.00
2639;DHT22;1329;51.384;7.122;2023-05-31T14:15:37;28.20;1.00
2639;DHT22;1329;51.384;7.122;2023-05-31T14:18:05;28.30;1.00
2639;DHT22;1329;51.384;7.122;2023-05-31T14:20:33;28.30;1.00
2639;DHT22;1329;51.384;7.122;2023-05-31T14:23:01;28.40;1.00
2639;DHT22;1329;51.384;7.122;2023-05-31T14:25:28;28.50;1.00
2639;DHT22;1329;51.384;7.122;2023-05-31T14:27:55;28.50;1.00
2639;DHT22;1329;51.384;7.122;2023-05-31T14:30:23;28.50;1.00
2639;DHT22;1329;51.384;7.122;2023-05-31T14:32:50;28.50;1.00
2639;DHT22;1329;51.384;7.122;2023-05-31T14:35:18;28.50;1.00
2639;DHT22;1329;51.384;7.122;2023-05-31T14:37:47;28.40;1.00
2639;DHT22;1329;51.384;7.122;2023-05-31T14:40:14;28.40;1.00
2639;DHT22;1329;51.384;7.122;2023-05-31T14:42:42;28.40;1.00
2639;DHT22;1329;51.384;7.122;2023-05-31T14:45:09;28.40;1.00
2639;DHT22;1329;51.384;7.122;2023-05-31T14:47:37;28.40;1.00
2639;DHT22;1329;51.384;7.122;2023-05-31T14:50:04;28.40;1.00
2639;DHT22;1329;51.384;7.122;2023-05-31T14:52:32;28.40;1.00
2639;DHT22;1329;51.384;7.122;2023-05-31T14:55:00;28.40;1.00
2639;DHT22;1329;51.384;7.122;2023-05-31T14:57:28;28.50;1.00
2639;DHT22;1329;51.384;7.122;2023-05-31T14:59:57;28.50;1.00
2639;DHT22;1329;51.384;7.122;2023-05-31T15:02:23;28.50;1.00
2639;DHT22;1329;51.384;7.122;2023-05-31T15:04:50;28.50;1.00
2639;DHT22;1329;51.384;7.122;2023-05-31T15:07:17;28.50;1.00
2639;DHT22;1329;51.384;7.122;2023-05-31T15:09:44;28.40;1.00
2639;DHT22;1329;51.384;7.122;2023-05-31T15:12:12;28.40;1.00
2639;DHT22;1329;51.384;7.122;2023-05-31T15:14:40;28.40;1.00
2639;DHT22;1329;51.384;7.122;2023-05-31T15:17:07;28.30;1.00
2639;DHT22;1329;51.384;7.122;2023-05-31T15:19:34;28.30;1.00
2639;DHT22;1329;51.384;7.122;2023-05-31T15:22:04;28.30;1.00
2639;DHT22;1329;51.384;7.122;2023-05-31T15:24:41;28.30;1.00
2639;DHT22;1329;51.384;7.122;2023-05-31T15:27:10;28.30;1.00
2639;DHT22;1329;51.384;7.122;2023-05-31T15:29:42;28.30;1.00
2639;DHT22;1329;51.384;7.122;2023-05-31T15:32:10;28.30;1.00
2639;DHT22;1329;51.384;7.122;2023-05-31T15:34:37;28.30;1.00
2639;DHT22;1329;51.384;7.122;2023-05-31T15:37:04;28.20;1.00
2639;DHT22;1329;51.384;7.122;2023-05-31T15:39:31;28.30;1.00
2639;DHT22;1329;51.384;7.122;2023-05-31T15:41:58;28.30;1.00
2639;DHT22;1329;51.384;7.122;2023-05-31T15:44:30;28.30;1.00
2639;DHT22;1329;51.384;7.122;2023-05-31T15:46:57;28.30;1.00
2639;DHT22;1329;51.384;7.122;2023-05-31T15:49:24;28.30;1.00
2639;DHT22;1329;51.384;7.122;2023-05-31T15:51:52;28.30;1.00
2639;DHT22;1329;51.384;7.122;2023-05-31T15:54:19;28.40;1.00
2639;DHT22;1329;51.384;7.122;2023-05-31T15:56:46;28.30;1.00
2639;DHT22;1329;51.384;7.122;2023-05-31T15:59:13;28.40;1.00
2639;DHT22;1329;51.384;7.122;2023-05-31T16:01:41;28.40;1.00
2639;DHT22;1329;51.384;7.122;2023-05-31T16:04:08;28.40;1.00
2639;DHT22;1329;51.384;7.122;2023-05-31T16:06:36;28.40;1.00
2639;DHT22;1329;51.384;7.122;2023-05-31T16:09:03;28.50;1.00
2639;DHT22;1329;51.384;7.122;2023-05-31T16:11:30;28.50;1.00
2639;DHT22;1329;51.384;7.122;2023-05-31T16:13:58;28.50;1.00
2639;DHT22;1329;51.384;7.122;2023-05-31T16:16:25;28.50;1.00
2639;DHT22;1329;51.384;7.122;2023-05-31T16:18:54;28.50;1.00
2639;DHT22;1329;51.384;7.122;2023-05-31T16:21:21;28.50;1.00
2639;DHT22;1329;51.384;7.122;2023-05-31T16:23:48;28.50;1.00
2639;DHT22;1329;51.384;7.122;2023-05-31T16:26:15;28.50;1.00
2639;DHT22;1329;51.384;7.122;2023-05-31T16:28:42;28.50;1.00
2639;DHT22;1329;51.384;7.122;2023-05-31T16:31:09;28.50;1.00
2639;DHT22;1329;51.384;7.122;2023-05-31T16:33:36;28.50;1.00